Time;durP1;ratioP1;P1;durP2;ratioP2;P2;SDS_P1;SDS_P2;PMS_P1;PMS_P2;Temp;Humidity;BMP_temperature;BMP_pressure;BME280_temperature;BME280_humidity;BME280_pressure;Samples;Min_cycle;Max_cycle;Signal;HPM_P1;HPM_P2
2023/09/05 00:00:06;;;;;;;11.98;9.15;;;;;;;;;;4987864;28;20038;-74
2023/09/05 00:02:32;;;;;;;16.13;9.15;;;;;;;;;;4981492;28;20050;-74
2023/09/05 00:05:00;;;;;;;14.95;9.00;;;;;;;;;;4982476;28;20093;-75
2023/09/05 00:07:27;;;;;;;29.00;17.60;;;;;;;;;;4997696;28;20045;-78
2023/09/05 00:09:56;;;;;;;20.75;15.10;;;;;;;;;;4981355;28;20077;-77
2023/09/05 00:12:22;;;;;;;10.15;7.68;;;;;;;;;;4984200;28;20065;-75
2023/09/05 00:14:48;;;;;;;12.95;8.15;;;;;;;;;;4996386;28;21934;-76
2023/09/05 00:17:14;;;;;;;11.55;7.65;;;;;;;;;;4981329;28;20097;-76
2023/09/05 00:19:40;;;;;;;8.57;7.03;;;;;;;;;;4985214;28;20046;-75
2023/09/05 00:22:06;;;;;;;10.70;7.93;;;;;;;;;;4986422;28;20141;-75
2023/09/05 00:24:36;;;;;;;8.57;6.90;;;;;;;;;;4986803;28;20034;-75
2023/09/05 00:27:03;;;;;;;8.75;6.55;;;;;;;;;;4986027;28;20084;-74
2023/09/05 00:29:30;;;;;;;8.73;6.35;;;;;;;;;;4983462;28;20054;-76
2023/09/05 00:31:59;;;;;;;8.93;6.90;;;;;;;;;;4977982;28;20448;-75
2023/09/05 00:34:29;;;;;;;13.27;7.68;;;;;;;;;;4978745;28;20494;-74
2023/09/05 00:36:55;;;;;;;12.40;7.88;;;;;;;;;;4983581;28;20120;-75
2023/09/05 00:39:22;;;;;;;11.23;8.18;;;;;;;;;;4969658;28;20102;-75
2023/09/05 00:41:48;;;;;;;10.55;7.75;;;;;;;;;;4985563;28;20074;-74
2023/09/05 00:44:15;;;;;;;9.75;8.75;;;;;;;;;;4981834;28;20031;-75
2023/09/05 00:46:44;;;;;;;13.95;7.47;;;;;;;;;;4986523;28;20094;-76
2023/09/05 00:49:12;;;;;;;20.38;7.40;;;;;;;;;;4985723;28;20030;-76
2023/09/05 00:51:39;;;;;;;66.20;43.33;;;;;;;;;;4982731;28;20054;-86
2023/09/05 00:54:06;;;;;;;54.85;38.20;;;;;;;;;;4985064;28;20392;-85
2023/09/05 00:56:32;;;;;;;15.05;10.80;;;;;;;;;;4987025;28;20118;-75
2023/09/05 00:58:59;;;;;;;11.50;7.93;;;;;;;;;;4979488;28;20227;-77
2023/09/05 01:01:25;;;;;;;14.82;8.73;;;;;;;;;;4983006;28;20096;-77
2023/09/05 01:03:54;;;;;;;8.73;7.82;;;;;;;;;;4978977;28;20052;-75
2023/09/05 01:06:39;;;;;;;10.57;7.43;;;;;;;;;;4980155;28;20037;-75
2023/09/05 01:09:13;;;;;;;11.60;8.18;;;;;;;;;;4985759;28;20250;-75
2023/09/05 01:11:41;;;;;;;9.82;7.80;;;;;;;;;;4975365;28;20050;-74
2023/09/05 01:14:07;;;;;;;11.88;7.40;;;;;;;;;;4979642;28;20037;-74
2023/09/05 01:16:33;;;;;;;13.27;7.97;;;;;;;;;;4979837;28;20395;-74
2023/09/05 01:19:01;;;;;;;10.35;7.35;;;;;;;;;;4983985;28;20077;-74
2023/09/05 01:21:31;;;;;;;12.80;7.32;;;;;;;;;;4984308;28;20121;-74
2023/09/05 01:24:11;;;;;;;12.07;7.90;;;;;;;;;;4988343;28;20031;-75
2023/09/05 01:26:37;;;;;;;9.68;7.47;;;;;;;;;;4985170;28;20126;-75
2023/09/05 01:29:03;;;;;;;11.95;7.57;;;;;;;;;;4985849;28;20034;-74
2023/09/05 01:31:29;;;;;;;9.85;7.78;;;;;;;;;;4984537;28;20037;-75
2023/09/05 01:33:55;;;;;;;10.52;7.20;;;;;;;;;;4976099;28;20034;-75
2023/09/05 01:36:22;;;;;;;11.60;7.30;;;;;;;;;;4977837;28;20125;-75
2023/09/05 01:38:48;;;;;;;8.02;6.80;;;;;;;;;;4994663;28;20038;-75
2023/09/05 01:41:14;;;;;;;14.40;7.28;;;;;;;;;;4978131;28;20081;-75
2023/09/05 01:43:40;;;;;;;9.05;6.95;;;;;;;;;;4978341;28;20023;-75
2023/09/05 01:46:06;;;;;;;8.57;6.72;;;;;;;;;;4985107;28;20034;-75
2023/09/05 01:48:32;;;;;;;11.48;7.82;;;;;;;;;;4980393;28;20049;-74
2023/09/05 01:50:58;;;;;;;10.27;6.40;;;;;;;;;;4982273;28;20514;-74
2023/09/05 01:53:24;;;;;;;9.73;6.97;;;;;;;;;;4985480;28;20033;-75
2023/09/05 01:55:50;;;;;;;8.90;6.57;;;;;;;;;;4972118;28;20035;-75
2023/09/05 01:58:16;;;;;;;8.40;6.93;;;;;;;;;;5001300;28;20097;-75
2023/09/05 02:00:42;;;;;;;8.52;6.72;;;;;;;;;;4977496;28;20031;-75
2023/09/05 02:03:09;;;;;;;8.07;6.63;;;;;;;;;;4983697;28;20266;-75
2023/09/05 02:05:35;;;;;;;10.15;7.82;;;;;;;;;;4978990;28;20022;-75
2023/09/05 02:08:01;;;;;;;7.43;6.68;;;;;;;;;;4982491;28;20038;-75
2023/09/05 02:10:29;;;;;;;7.32;6.53;;;;;;;;;;4977701;28;20077;-74
2023/09/05 02:12:55;;;;;;;9.60;7.75;;;;;;;;;;4989920;28;20038;-75
2023/09/05 02:15:22;;;;;;;10.52;7.00;;;;;;;;;;4983673;28;20121;-74
2023/09/05 02:17:48;;;;;;;9.80;6.95;;;;;;;;;;4979514;28;20075;-74
2023/09/05 02:20:14;;;;;;;9.30;6.78;;;;;;;;;;4998133;28;20538;-75
2023/09/05 02:22:44;;;;;;;7.88;7.05;;;;;;;;;;4983657;28;20038;-74
2023/09/05 02:25:11;;;;;;;8.35;7.20;;;;;;;;;;4982262;28;20092;-75
2023/09/05 02:27:38;;;;;;;9.13;7.57;;;;;;;;;;4981874;28;20062;-74
2023/09/05 02:30:04;;;;;;;10.38;6.93;;;;;;;;;;4979411;28;20117;-73
2023/09/05 02:32:30;;;;;;;8.90;7.68;;;;;;;;;;4985418;28;20067;-74
2023/09/05 02:34:58;;;;;;;10.15;7.07;;;;;;;;;;4991999;28;20034;-74
2023/09/05 02:37:24;;;;;;;8.95;7.35;;;;;;;;;;4977450;28;20034;-74
2023/09/05 02:39:50;;;;;;;10.32;7.63;;;;;;;;;;4978869;28;20121;-74
2023/09/05 02:42:16;;;;;;;9.75;7.65;;;;;;;;;;4999458;28;20026;-74
2023/09/05 02:44:42;;;;;;;12.02;7.60;;;;;;;;;;4988139;28;20046;-74
2023/09/05 02:47:08;;;;;;;9.43;7.68;;;;;;;;;;4982360;28;20058;-73
2023/09/05 02:49:34;;;;;;;9.45;7.60;;;;;;;;;;4986048;28;20038;-73
2023/09/05 02:52:00;;;;;;;13.52;7.35;;;;;;;;;;4981519;28;20036;-73
2023/09/05 02:54:29;;;;;;;11.38;7.68;;;;;;;;;;4981313;28;20679;-74
2023/09/05 02:56:55;;;;;;;11.75;7.80;;;;;;;;;;4988255;28;20038;-74
2023/09/05 02:59:21;;;;;;;13.40;8.05;;;;;;;;;;4980458;28;20360;-74
2023/09/05 03:01:48;;;;;;;10.45;7.95;;;;;;;;;;4992005;28;20039;-73
2023/09/05 03:04:17;;;;;;;10.25;7.45;;;;;;;;;;4977537;28;20038;-73
2023/09/05 03:06:43;;;;;;;9.63;7.07;;;;;;;;;;4988848;28;20097;-73
2023/09/05 03:09:09;;;;;;;16.50;7.82;;;;;;;;;;4981846;28;20125;-74
2023/09/05 03:11:35;;;;;;;12.65;8.57;;;;;;;;;;4984738;28;20102;-74
2023/09/05 03:14:02;;;;;;;10.25;7.90;;;;;;;;;;4984140;28;20471;-73
2023/09/05 03:16:28;;;;;;;8.85;7.43;;;;;;;;;;4989294;28;20044;-73
2023/09/05 03:18:59;;;;;;;8.93;7.85;;;;;;;;;;4986922;28;20118;-73
2023/09/05 03:21:26;;;;;;;9.57;7.10;;;;;;;;;;4979604;28;20387;-73
2023/09/05 03:23:52;;;;;;;13.65;7.80;;;;;;;;;;4982741;28;20038;-73
2023/09/05 03:26:19;;;;;;;11.30;8.10;;;;;;;;;;4983249;28;20110;-75
2023/09/05 03:28:47;;;;;;;8.65;7.53;;;;;;;;;;4985003;28;20026;-75
2023/09/05 03:31:13;;;;;;;10.13;8.00;;;;;;;;;;4980926;28;20468;-74
2023/09/05 03:33:39;;;;;;;9.70;7.60;;;;;;;;;;4988162;28;20058;-75
2023/09/05 03:36:05;;;;;;;10.05;7.40;;;;;;;;;;4978417;28;20354;-75
2023/09/05 03:38:34;;;;;;;9.48;7.80;;;;;;;;;;4980239;28;20459;-74
2023/09/05 03:41:00;;;;;;;11.57;8.35;;;;;;;;;;4979099;28;20055;-75
2023/09/05 03:43:27;;;;;;;10.52;6.78;;;;;;;;;;4979287;28;20031;-75
2023/09/05 03:45:53;;;;;;;12.40;8.45;;;;;;;;;;4977687;28;20030;-75
2023/09/05 03:48:20;;;;;;;12.57;7.22;;;;;;;;;;4990825;28;20651;-75
2023/09/05 03:50:46;;;;;;;8.65;7.00;;;;;;;;;;4985494;28;20031;-75
2023/09/05 03:53:12;;;;;;;11.77;8.07;;;;;;;;;;4992757;28;20034;-75
2023/09/05 03:55:38;;;;;;;8.15;7.18;;;;;;;;;;4990151;28;20023;-75
2023/09/05 03:58:04;;;;;;;9.95;7.60;;;;;;;;;;4981196;28;20073;-75
2023/09/05 04:00:34;;;;;;;9.95;7.82;;;;;;;;;;4978890;28;20127;-75
2023/09/05 04:03:02;;;;;;;12.40;8.07;;;;;;;;;;4981796;28;20034;-75
2023/09/05 04:05:28;;;;;;;9.20;8.20;;;;;;;;;;4987193;28;20030;-75
2023/09/05 04:07:54;;;;;;;13.93;8.75;;;;;;;;;;4983260;28;20053;-75
2023/09/05 04:10:21;;;;;;;13.77;8.40;;;;;;;;;;4988485;28;20054;-75
2023/09/05 04:12:47;;;;;;;11.45;8.48;;;;;;;;;;4985683;28;20062;-75
2023/09/05 04:15:19;;;;;;;8.75;7.60;;;;;;;;;;4981973;28;20108;-75
2023/09/05 04:17:45;;;;;;;11.88;8.77;;;;;;;;;;4979009;28;20065;-75
2023/09/05 04:20:13;;;;;;;10.75;8.50;;;;;;;;;;4981692;28;20133;-75
2023/09/05 04:22:39;;;;;;;10.02;8.13;;;;;;;;;;4981080;28;20033;-74
2023/09/05 04:25:05;;;;;;;9.88;7.75;;;;;;;;;;4990300;28;20073;-74
2023/09/05 04:27:31;;;;;;;9.77;8.15;;;;;;;;;;4983349;28;20485;-75
2023/09/05 04:29:57;;;;;;;10.45;8.32;;;;;;;;;;4978429;28;20508;-74
2023/09/05 04:32:32;;;;;;;9.63;7.85;;;;;;;;;;4986082;28;20069;-74
2023/09/05 04:34:59;;;;;;;9.93;8.02;;;;;;;;;;4983503;28;20108;-74
2023/09/05 04:37:26;;;;;;;8.85;7.78;;;;;;;;;;4995211;28;20030;-74
2023/09/05 04:39:52;;;;;;;11.30;8.32;;;;;;;;;;4996849;28;20037;-74
2023/09/05 04:42:18;;;;;;;8.95;7.57;;;;;;;;;;4977466;28;20314;-74
2023/09/05 04:44:44;;;;;;;11.80;8.98;;;;;;;;;;4975937;28;20550;-74
2023/09/05 04:47:38;;;;;;;8.93;7.57;;;;;;;;;;4982292;28;20057;-75
2023/09/05 04:50:05;;;;;;;10.88;7.78;;;;;;;;;;4973865;28;20059;-74
2023/09/05 04:52:31;;;;;;;15.70;8.75;;;;;;;;;;4985246;28;20413;-74
2023/09/05 04:54:58;;;;;;;10.07;8.15;;;;;;;;;;4978109;28;20507;-74
2023/09/05 04:57:25;;;;;;;12.43;8.30;;;;;;;;;;4981544;28;20034;-75
2023/09/05 04:59:57;;;;;;;9.63;8.10;;;;;;;;;;4984782;28;20034;-75
2023/09/05 05:02:23;;;;;;;8.65;7.50;;;;;;;;;;4985120;28;20038;-74
2023/09/05 05:04:49;;;;;;;11.63;7.72;;;;;;;;;;4972141;28;20054;-75
2023/09/05 05:07:15;;;;;;;8.65;7.60;;;;;;;;;;4983386;28;20088;-75
2023/09/05 05:09:42;;;;;;;13.32;8.38;;;;;;;;;;4973921;28;20074;-75
2023/09/05 05:12:08;;;;;;;9.68;8.38;;;;;;;;;;4978584;28;20038;-75
2023/09/05 05:14:34;;;;;;;17.33;7.97;;;;;;;;;;4983652;28;20046;-75
2023/09/05 05:17:01;;;;;;;9.55;7.97;;;;;;;;;;4981470;28;20042;-75
2023/09/05 05:19:27;;;;;;;10.00;8.02;;;;;;;;;;4982647;28;20424;-75
2023/09/05 05:21:53;;;;;;;9.93;7.78;;;;;;;;;;4983490;28;20034;-74
2023/09/05 05:24:20;;;;;;;14.88;8.77;;;;;;;;;;4986815;28;20030;-74
2023/09/05 05:26:46;;;;;;;9.60;8.18;;;;;;;;;;4979280;28;20038;-74
2023/09/05 05:29:12;;;;;;;11.77;8.48;;;;;;;;;;4977277;28;20086;-74
2023/09/05 05:31:39;;;;;;;10.18;8.98;;;;;;;;;;4980110;28;20034;-74
2023/09/05 05:34:05;;;;;;;10.43;8.10;;;;;;;;;;4979882;28;20042;-74
2023/09/05 05:36:32;;;;;;;10.90;8.05;;;;;;;;;;4976917;28;20048;-75
2023/09/05 05:38:58;;;;;;;12.15;7.50;;;;;;;;;;4986143;28;20038;-75
2023/09/05 05:41:24;;;;;;;9.43;7.05;;;;;;;;;;4985737;28;20029;-75
2023/09/05 05:43:50;;;;;;;11.38;7.68;;;;;;;;;;4986136;28;20488;-74
2023/09/05 05:46:18;;;;;;;13.45;8.70;;;;;;;;;;4980495;28;20162;-74
2023/09/05 05:48:44;;;;;;;12.20;7.40;;;;;;;;;;4980104;28;20519;-75
2023/09/05 05:51:10;;;;;;;31.13;22.75;;;;;;;;;;4982792;28;20595;-82
2023/09/05 05:53:36;;;;;;;12.20;9.73;;;;;;;;;;4978828;28;20507;-79
2023/09/05 05:56:02;;;;;;;10.10;8.95;;;;;;;;;;4985222;28;20045;-78
2023/09/05 05:58:29;;;;;;;11.90;7.90;;;;;;;;;;4976715;28;20047;-73
2023/09/05 06:00:55;;;;;;;14.85;7.50;;;;;;;;;;4981356;28;20065;-75
2023/09/05 06:03:21;;;;;;;10.73;7.93;;;;;;;;;;4983957;28;20034;-74
2023/09/05 06:05:48;;;;;;;11.95;7.28;;;;;;;;;;4985276;28;20038;-75
2023/09/05 06:08:14;;;;;;;16.83;7.53;;;;;;;;;;4996963;28;20053;-74
2023/09/05 06:10:40;;;;;;;10.35;6.93;;;;;;;;;;4981677;28;20063;-74
2023/09/05 06:13:06;;;;;;;10.15;7.70;;;;;;;;;;4987327;28;20035;-76
2023/09/05 06:15:33;;;;;;;15.80;7.88;;;;;;;;;;4975552;28;22032;-73
2023/09/05 06:18:00;;;;;;;41.00;23.17;;;;;;;;;;4999153;28;20049;-75
2023/09/05 06:20:26;;;;;;;16.75;13.07;;;;;;;;;;4978926;28;20034;-73
2023/09/05 06:22:52;;;;;;;13.93;11.02;;;;;;;;;;4983730;28;20488;-74
2023/09/05 06:25:18;;;;;;;7.00;6.30;;;;;;;;;;4984262;28;20034;-74
2023/09/05 06:27:44;;;;;;;10.73;7.07;;;;;;;;;;4990944;28;20042;-73
2023/09/05 06:30:11;;;;;;;9.50;6.63;;;;;;;;;;4982917;28;20046;-74
2023/09/05 06:32:37;;;;;;;6.95;6.18;;;;;;;;;;4992241;28;20229;-76
2023/09/05 06:35:05;;;;;;;10.10;7.00;;;;;;;;;;4989541;28;20475;-76
2023/09/05 06:37:33;;;;;;;12.40;6.85;;;;;;;;;;4984933;28;20212;-76
2023/09/05 06:40:00;;;;;;;11.25;6.28;;;;;;;;;;4986260;28;20034;-75
2023/09/05 06:42:26;;;;;;;8.02;7.13;;;;;;;;;;4986631;28;20031;-74
2023/09/05 06:44:52;;;;;;;8.77;6.25;;;;;;;;;;4988679;28;20162;-73
2023/09/05 06:47:18;;;;;;;9.15;6.93;;;;;;;;;;4989645;28;20034;-76
2023/09/05 06:49:44;;;;;;;18.10;12.55;;;;;;;;;;4995798;28;20109;-79
2023/09/05 06:52:10;;;;;;;22.48;13.82;;;;;;;;;;4988680;28;20173;-82
2023/09/05 06:54:36;;;;;;;26.27;15.05;;;;;;;;;;4985608;28;20513;-78
2023/09/05 06:57:02;;;;;;;12.80;8.30;;;;;;;;;;4986024;28;20069;-76
2023/09/05 06:59:28;;;;;;;11.35;6.22;;;;;;;;;;4979648;28;20041;-75
2023/09/05 07:01:54;;;;;;;8.40;5.68;;;;;;;;;;4979786;28;20389;-75
2023/09/05 07:04:20;;;;;;;6.63;5.57;;;;;;;;;;4994639;28;20034;-73
2023/09/05 07:06:48;;;;;;;7.20;5.07;;;;;;;;;;4986457;28;20042;-74
2023/09/05 07:09:14;;;;;;;12.32;5.10;;;;;;;;;;4984778;28;20041;-73
2023/09/05 07:11:41;;;;;;;9.65;5.70;;;;;;;;;;4986229;28;20436;-74
2023/09/05 07:14:08;;;;;;;10.02;5.50;;;;;;;;;;4988777;28;20037;-74
2023/09/05 07:16:34;;;;;;;7.75;5.47;;;;;;;;;;4983466;28;20026;-73
2023/09/05 07:19:00;;;;;;;4.60;4.10;;;;;;;;;;4984422;28;20520;-72
2023/09/05 07:21:26;;;;;;;6.32;4.75;;;;;;;;;;5000347;28;20053;-73
2023/09/05 07:23:52;;;;;;;12.43;5.05;;;;;;;;;;4989431;28;20030;-72
2023/09/05 07:26:18;;;;;;;5.45;4.65;;;;;;;;;;4983787;28;20058;-73
2023/09/05 07:28:47;;;;;;;6.85;4.78;;;;;;;;;;4979871;28;20046;-75
2023/09/05 07:31:14;;;;;;;24.55;16.52;;;;;;;;;;4978248;28;20030;-79
2023/09/05 07:33:41;;;;;;;56.83;38.85;;;;;;;;;;4988092;28;20609;-79
2023/09/05 07:36:07;;;;;;;26.92;20.20;;;;;;;;;;4984650;28;20046;-88
2023/09/05 07:38:33;;;;;;;7.45;5.88;;;;;;;;;;4983010;28;20045;-75
2023/09/05 07:41:06;;;;;;;5.78;4.80;;;;;;;;;;4976623;28;20121;-73
2023/09/05 07:43:33;;;;;;;7.30;3.78;;;;;;;;;;4981750;28;20030;-73
2023/09/05 07:45:59;;;;;;;88.03;61.63;;;;;;;;;;4982998;28;20508;-76
2023/09/05 07:48:25;;;;;;;148.30;93.95;;;;;;;;;;4980584;28;20036;-77
2023/09/05 07:50:53;;;;;;;52.63;36.08;;;;;;;;;;4994198;28;20049;-79
2023/09/05 07:53:19;;;;;;;10.05;6.18;;;;;;;;;;4994347;28;20030;-76
2023/09/05 07:55:45;;;;;;;5.32;4.00;;;;;;;;;;4976378;28;20119;-73
2023/09/05 07:58:12;;;;;;;6.25;3.78;;;;;;;;;;4977329;28;20042;-74
2023/09/05 08:00:38;;;;;;;5.28;3.15;;;;;;;;;;4979974;28;20113;-74
2023/09/05 08:03:04;;;;;;;5.63;3.25;;;;;;;;;;4987257;28;20049;-74
2023/09/05 08:05:31;;;;;;;13.60;3.50;;;;;;;;;;4988337;28;20062;-74
2023/09/05 08:07:57;;;;;;;3.90;3.03;;;;;;;;;;4982286;28;20122;-74
2023/09/05 08:10:23;;;;;;;7.72;2.95;;;;;;;;;;4985914;28;20127;-74
2023/09/05 08:12:49;;;;;;;5.20;2.80;;;;;;;;;;4986404;28;20121;-74
2023/09/05 08:15:15;;;;;;;4.13;2.60;;;;;;;;;;4984631;28;20039;-83
2023/09/05 08:17:41;;;;;;;5.30;2.90;;;;;;;;;;4981096;28;20034;-90
2023/09/05 08:20:08;;;;;;;4.53;2.70;;;;;;;;;;4979431;28;20093;-88
2023/09/05 08:22:34;;;;;;;7.07;3.15;;;;;;;;;;4988745;28;20602;-86
2023/09/05 08:25:00;;;;;;;5.13;2.70;;;;;;;;;;4981395;28;20103;-88
2023/09/05 08:27:28;;;;;;;3.65;2.88;;;;;;;;;;4984575;28;20056;-75
2023/09/05 08:29:55;;;;;;;4.53;2.50;;;;;;;;;;4986576;28;20046;-76
2023/09/05 08:32:21;;;;;;;5.72;2.72;;;;;;;;;;4981467;28;20045;-75
2023/09/05 08:34:47;;;;;;;7.05;2.42;;;;;;;;;;4982335;28;20036;-76
2023/09/05 08:37:13;;;;;;;10.13;2.42;;;;;;;;;;4981152;28;20023;-75
2023/09/05 08:39:39;;;;;;;6.45;2.85;;;;;;;;;;4981805;28;20049;-76
2023/09/05 08:42:08;;;;;;;4.80;2.75;;;;;;;;;;4980765;28;20627;-75
2023/09/05 08:44:40;;;;;;;6.10;2.97;;;;;;;;;;4985156;28;20080;-75
2023/09/05 08:47:06;;;;;;;5.63;2.38;;;;;;;;;;4977080;28;20048;-75
2023/09/05 08:49:33;;;;;;;3.50;2.28;;;;;;;;;;4988994;28;20619;-76
2023/09/05 08:52:02;;;;;;;4.10;2.50;;;;;;;;;;4982626;28;20037;-76
2023/09/05 08:54:28;;;;;;;5.18;2.22;;;;;;;;;;4993247;28;20034;-76
2023/09/05 08:56:54;;;;;;;2.72;1.92;;;;;;;;;;4985985;28;20169;-76
2023/09/05 08:59:21;;;;;;;5.03;2.00;;;;;;;;;;4984483;28;20186;-75
2023/09/05 09:01:47;;;;;;;8.70;1.70;;;;;;;;;;4988714;28;20018;-77
2023/09/05 09:04:13;;;;;;;10.40;2.00;;;;;;;;;;4984755;28;20205;-76
2023/09/05 09:06:41;;;;;;;11.55;5.68;;;;;;;;;;4975448;28;20092;-82
2023/09/05 09:09:07;;;;;;;6.47;2.10;;;;;;;;;;4976859;28;20575;-81
2023/09/05 09:11:34;;;;;;;2.45;2.00;;;;;;;;;;4981434;28;20066;-84
2023/09/05 09:14:00;;;;;;;2.22;1.60;;;;;;;;;;4979084;28;20547;-82
2023/09/05 09:16:26;;;;;;;4.22;1.42;;;;;;;;;;4978263;28;20164;-76
2023/09/05 09:19:03;;;;;;;8.13;2.28;;;;;;;;;;4986771;28;20030;-78
2023/09/05 09:21:29;;;;;;;93.57;75.88;;;;;;;;;;4982543;28;20069;-77
2023/09/05 09:24:18;;;;;;;8.60;5.20;;;;;;;;;;4984681;28;20035;-81
2023/09/05 09:26:53;;;;;;;8.05;4.57;;;;;;;;;;4988925;28;20503;-82
2023/09/05 09:29:19;;;;;;;3.90;2.00;;;;;;;;;;4984103;28;20030;-79
2023/09/05 09:31:47;;;;;;;2.60;1.58;;;;;;;;;;4981903;28;20042;-81
2023/09/05 09:34:13;;;;;;;3.22;1.48;;;;;;;;;;4984126;28;20034;-80
2023/09/05 09:36:39;;;;;;;4.93;1.60;;;;;;;;;;4981921;28;20050;-81
2023/09/05 09:39:12;;;;;;;3.03;1.45;;;;;;;;;;4986246;28;20031;-79
2023/09/05 09:41:42;;;;;;;4.43;1.50;;;;;;;;;;4979456;28;20186;-81
2023/09/05 09:44:08;;;;;;;2.75;1.45;;;;;;;;;;4981491;28;20069;-81
2023/09/05 09:46:34;;;;;;;2.42;1.60;;;;;;;;;;4995426;28;20444;-82
2023/09/05 09:49:01;;;;;;;1.65;1.52;;;;;;;;;;4978291;28;20039;-82
2023/09/05 09:51:30;;;;;;;6.80;3.40;;;;;;;;;;4979922;28;20027;-79
2023/09/05 09:53:57;;;;;;;3.15;2.08;;;;;;;;;;4983253;28;20049;-79
2023/09/05 09:56:25;;;;;;;3.22;1.10;;;;;;;;;;4976777;28;20600;-75
2023/09/05 09:58:56;;;;;;;3.28;1.50;;;;;;;;;;4982123;28;20049;-76
2023/09/05 10:01:22;;;;;;;2.60;1.55;;;;;;;;;;4976221;28;20512;-75
2023/09/05 10:03:48;;;;;;;2.13;1.25;;;;;;;;;;4980860;28;20502;-76
2023/09/05 10:06:16;;;;;;;1.90;1.33;;;;;;;;;;4986715;28;20476;-76
2023/09/05 10:08:42;;;;;;;6.47;1.50;;;;;;;;;;4982896;28;20053;-76
2023/09/05 10:11:10;;;;;;;1.73;1.20;;;;;;;;;;4984151;28;20104;-77
2023/09/05 10:13:37;;;;;;;1.95;1.15;;;;;;;;;;4980002;28;20038;-75
2023/09/05 10:16:06;;;;;;;2.70;1.13;;;;;;;;;;4979905;28;20398;-75
2023/09/05 10:18:32;;;;;;;2.40;1.30;;;;;;;;;;4979874;28;20030;-83
2023/09/05 10:21:01;;;;;;;8.90;6.00;;;;;;;;;;4977236;28;20030;-83
2023/09/05 10:23:29;;;;;;;7.50;5.63;;;;;;;;;;4988637;28;20038;-82
2023/09/05 10:25:57;;;;;;;2.15;1.05;;;;;;;;;;4982802;28;20101;-76
2023/09/05 10:28:27;;;;;;;3.47;1.10;;;;;;;;;;4981630;28;20042;-77
2023/09/05 10:30:54;;;;;;;2.42;1.10;;;;;;;;;;4977515;28;20058;-77
2023/09/05 10:33:43;;;;;;;2.47;1.00;;;;;;;;;;4985740;28;20042;-77
2023/09/05 10:36:29;;;;;;;12.68;1.25;;;;;;;;;;4985332;28;20030;-77
2023/09/05 10:38:57;;;;;;;2.28;1.00;;;;;;;;;;4984634;28;20045;-77
2023/09/05 10:41:36;;;;;;;3.40;1.35;;;;;;;;;;4983831;28;20052;-78
2023/09/05 10:44:02;;;;;;;2.30;1.10;;;;;;;;;;4983094;28;20101;-77
2023/09/05 10:46:28;;;;;;;1.67;1.23;;;;;;;;;;4981175;28;20033;-76
2023/09/05 10:49:10;;;;;;;3.65;0.90;;;;;;;;;;4986860;28;20047;-77
2023/09/05 10:51:36;;;;;;;2.97;1.08;;;;;;;;;;4985493;28;20400;-76
2023/09/05 10:54:41;;;;;;;3.28;1.08;;;;;;;;;;4984530;28;20031;-77
2023/09/05 10:57:27;;;;;;;2.40;0.82;;;;;;;;;;4959658;28;20069;-77
2023/09/05 10:59:53;;;;;;;1.02;0.88;;;;;;;;;;4957999;28;20045;-79
2023/09/05 11:02:24;;;;;;;3.40;1.00;;;;;;;;;;4965933;28;20093;-78
2023/09/05 11:04:50;;;;;;;;;;;;;;;;;;4982647;28;20105;-77
2023/09/05 11:07:17;;;;;;;1.58;0.77;;;;;;;;;;4991301;28;19925;-77
2023/09/05 11:09:54;;;;;;;2.05;1.10;;;;;;;;;;5003029;28;20530;-77
2023/09/05 11:12:20;;;;;;;1.60;0.80;;;;;;;;;;4986454;28;20023;-77
2023/09/05 11:14:47;;;;;;;1.92;1.00;;;;;;;;;;4987424;28;20022;-77
2023/09/05 11:17:13;;;;;;;1.23;0.88;;;;;;;;;;4987932;28;20038;-77
2023/09/05 11:19:42;;;;;;;4.00;1.08;;;;;;;;;;4992984;28;20058;-77
2023/09/05 11:22:10;;;;;;;2.92;1.30;;;;;;;;;;4989327;28;20022;-77
2023/09/05 11:24:38;;;;;;;1.95;0.93;;;;;;;;;;4993777;28;20071;-77
2023/09/05 11:27:06;;;;;;;3.40;0.90;;;;;;;;;;4986697;28;20035;-76
2023/09/05 11:29:33;;;;;;;0.93;0.82;;;;;;;;;;4986825;28;20056;-76
2023/09/05 11:31:59;;;;;;;3.03;1.25;;;;;;;;;;4979318;28;20058;-77
2023/09/05 11:34:27;;;;;;;1.35;1.10;;;;;;;;;;4985988;28;20034;-77
2023/09/05 11:36:53;;;;;;;1.25;0.80;;;;;;;;;;4985944;28;20026;-77
2023/09/05 11:39:24;;;;;;;3.30;0.90;;;;;;;;;;4986202;28;20034;-77
2023/09/05 11:41:50;;;;;;;2.78;0.85;;;;;;;;;;4991425;28;20034;-77
2023/09/05 11:44:16;;;;;;;1.55;1.20;;;;;;;;;;4990256;28;20046;-77
2023/09/05 11:46:43;;;;;;;2.70;1.00;;;;;;;;;;4975606;28;20043;-80
2023/09/05 11:49:09;;;;;;;2.22;1.70;;;;;;;;;;4985408;28;20030;-80
2023/09/05 11:51:35;;;;;;;3.53;1.30;;;;;;;;;;4987843;28;20039;-81
2023/09/05 11:54:01;;;;;;;5.40;1.30;;;;;;;;;;4993879;28;20065;-82
2023/09/05 11:56:27;;;;;;;1.90;1.20;;;;;;;;;;4989405;28;20026;-77
2023/09/05 11:58:53;;;;;;;4.05;1.55;;;;;;;;;;4983944;28;20045;-83
2023/09/05 12:01:29;;;;;;;3.05;0.90;;;;;;;;;;4979813;28;20706;-79
2023/09/05 12:04:05;;;;;;;2.03;0.80;;;;;;;;;;4985565;28;20090;-79
2023/09/05 12:06:34;;;;;;;1.42;0.80;;;;;;;;;;4983031;28;20435;-80
2023/09/05 12:09:00;;;;;;;3.78;0.82;;;;;;;;;;4973026;28;20046;-79
2023/09/05 12:11:27;;;;;;;1.42;0.90;;;;;;;;;;4980044;28;20063;-79
2023/09/05 12:13:57;;;;;;;1.33;1.00;;;;;;;;;;4983057;28;20034;-79
2023/09/05 12:16:23;;;;;;;2.80;0.88;;;;;;;;;;4985290;28;20054;-77
2023/09/05 12:18:49;;;;;;;0.88;0.70;;;;;;;;;;4984342;28;20030;-78
2023/09/05 12:21:15;;;;;;;1.10;0.90;;;;;;;;;;4986672;28;20054;-78
2023/09/05 12:23:42;;;;;;;1.30;1.05;;;;;;;;;;4984393;28;20046;-78
2023/09/05 12:26:08;;;;;;;0.75;0.75;;;;;;;;;;4978029;28;20045;-75
2023/09/05 12:28:35;;;;;;;1.00;0.90;;;;;;;;;;4983879;28;20038;-79
2023/09/05 12:31:05;;;;;;;2.00;0.95;;;;;;;;;;4980732;28;20117;-82
2023/09/05 12:33:31;;;;;;;2.13;0.80;;;;;;;;;;4977956;28;20026;-80
2023/09/05 12:35:57;;;;;;;1.05;0.70;;;;;;;;;;4984980;28;20437;-80
2023/09/05 12:38:23;;;;;;;3.30;0.60;;;;;;;;;;4986665;28;20401;-80
2023/09/05 12:40:49;;;;;;;3.63;0.65;;;;;;;;;;4983612;28;20417;-83
2023/09/05 12:43:19;;;;;;;4.25;0.95;;;;;;;;;;4983977;28;20488;-80
2023/09/05 12:45:45;;;;;;;0.82;0.70;;;;;;;;;;4986407;28;20105;-76
2023/09/05 12:48:11;;;;;;;4.95;0.80;;;;;;;;;;4984129;28;20050;-76
2023/09/05 12:50:37;;;;;;;2.05;0.85;;;;;;;;;;4984825;28;20033;-76
2023/09/05 12:53:09;;;;;;;4.13;0.75;;;;;;;;;;4981315;28;20125;-76
2023/09/05 12:55:36;;;;;;;2.50;0.98;;;;;;;;;;4983975;28;20027;-75
2023/09/05 12:58:03;;;;;;;1.92;0.73;;;;;;;;;;4983690;28;20053;-76
2023/09/05 13:00:29;;;;;;;1.35;0.73;;;;;;;;;;4984426;28;20034;-75
2023/09/05 13:02:57;;;;;;;1.05;0.95;;;;;;;;;;4983419;28;20041;-76
2023/09/05 13:05:23;;;;;;;1.00;0.82;;;;;;;;;;4986887;28;20512;-75
2023/09/05 13:07:49;;;;;;;3.60;0.77;;;;;;;;;;4981643;28;20477;-75
2023/09/05 13:10:15;;;;;;;0.90;0.73;;;;;;;;;;4987787;28;20174;-75
2023/09/05 13:12:41;;;;;;;2.88;0.90;;;;;;;;;;4982498;28;20604;-75
2023/09/05 13:15:08;;;;;;;1.88;0.80;;;;;;;;;;4980243;28;20121;-75
2023/09/05 13:17:34;;;;;;;1.15;0.70;;;;;;;;;;4980686;28;20045;-75
2023/09/05 13:20:00;;;;;;;1.35;0.73;;;;;;;;;;4976844;28;20031;-74
2023/09/05 13:22:26;;;;;;;2.13;0.85;;;;;;;;;;4991994;28;20038;-74
2023/09/05 13:24:52;;;;;;;2.15;0.70;;;;;;;;;;4994711;28;20564;-75
2023/09/05 13:27:19;;;;;;;1.20;0.98;;;;;;;;;;4999461;28;20047;-75
2023/09/05 13:29:45;;;;;;;0.70;0.70;;;;;;;;;;4982703;28;20030;-75
2023/09/05 13:32:11;;;;;;;1.92;0.75;;;;;;;;;;4987195;28;20022;-75
2023/09/05 13:34:37;;;;;;;1.60;1.15;;;;;;;;;;4985207;28;20408;-74
2023/09/05 13:37:04;;;;;;;4.28;1.10;;;;;;;;;;4985746;28;20072;-74
2023/09/05 13:39:31;;;;;;;1.30;1.00;;;;;;;;;;4985738;28;20035;-74
2023/09/05 13:41:58;;;;;;;5.32;0.95;;;;;;;;;;4986027;28;20084;-74
2023/09/05 13:44:25;;;;;;;4.13;0.95;;;;;;;;;;4985730;28;20117;-74
2023/09/05 13:46:51;;;;;;;1.17;0.80;;;;;;;;;;4980588;28;20062;-74
2023/09/05 13:49:17;;;;;;;1.65;0.98;;;;;;;;;;4987126;28;20065;-75
2023/09/05 13:51:43;;;;;;;3.00;0.80;;;;;;;;;;4986462;28;20445;-75
2023/09/05 13:54:09;;;;;;;1.70;0.93;;;;;;;;;;4988022;28;20105;-76
2023/09/05 13:56:35;;;;;;;1.13;0.90;;;;;;;;;;4985383;28;20113;-75
2023/09/05 13:59:01;;;;;;;1.10;0.73;;;;;;;;;;4987899;28;20038;-75
2023/09/05 14:01:27;;;;;;;4.13;1.55;;;;;;;;;;4984187;28;20030;-74
2023/09/05 14:03:54;;;;;;;2.65;0.95;;;;;;;;;;4987512;28;20037;-75
2023/09/05 14:06:20;;;;;;;1.60;1.10;;;;;;;;;;4986553;28;20125;-75
2023/09/05 14:08:47;;;;;;;3.28;0.88;;;;;;;;;;4990895;28;20034;-74
2023/09/05 14:11:13;;;;;;;1.35;0.80;;;;;;;;;;4986467;28;20054;-75
2023/09/05 14:13:39;;;;;;;1.40;0.90;;;;;;;;;;4989680;28;20133;-73
2023/09/05 14:16:05;;;;;;;3.80;0.90;;;;;;;;;;4986925;28;20038;-74
2023/09/05 14:18:31;;;;;;;1.67;0.75;;;;;;;;;;4987251;28;20045;-74
2023/09/05 14:20:57;;;;;;;5.00;0.98;;;;;;;;;;4986448;28;20030;-74
2023/09/05 14:23:23;;;;;;;1.75;0.60;;;;;;;;;;4980949;28;20038;-74
2023/09/05 14:25:49;;;;;;;1.85;0.70;;;;;;;;;;4987564;28;20117;-74
2023/09/05 14:28:16;;;;;;;1.45;0.65;;;;;;;;;;4987374;28;20034;-74
2023/09/05 14:30:42;;;;;;;3.22;0.90;;;;;;;;;;4985971;28;20084;-73
2023/09/05 14:33:09;;;;;;;1.55;0.70;;;;;;;;;;4986902;28;20112;-75
2023/09/05 14:35:38;;;;;;;3.13;0.70;;;;;;;;;;4987385;28;20026;-74
2023/09/05 14:38:04;;;;;;;3.08;0.90;;;;;;;;;;4985585;28;20050;-74